Time;durP1;ratioP1;P1;durP2;ratioP2;P2;SDS_P1;SDS_P2;PMS_P1;PMS_P2;Temp;Humidity;BMP_temperature;BMP_pressure;BME280_temperature;BME280_humidity;BME280_pressure;Samples;Min_cycle;Max_cycle;Signal;HPM_P1;HPM_P2
2022/06/01 00:01:11;;;;;;;4.75;1.17;;;19.20;60.10;;;;;;4466616;32;20129;-59
2022/06/01 00:03:39;;;;;;;4.53;1.00;;;19.20;60.10;;;;;;4468696;32;20159;-61
2022/06/01 00:06:05;;;;;;;3.08;1.10;;;19.20;60.10;;;;;;4467540;32;20152;-61
2022/06/01 00:08:31;;;;;;;3.72;1.10;;;19.20;60.10;;;;;;4465931;32;20656;-60
2022/06/01 00:10:57;;;;;;;3.50;1.10;;;19.20;60.10;;;;;;4467574;32;20255;-61
2022/06/01 00:13:24;;;;;;;2.70;1.10;;;19.20;60.10;;;;;;4467802;32;20185;-60
2022/06/01 00:15:50;;;;;;;4.97;0.88;;;19.20;60.10;;;;;;4467875;32;20291;-61
2022/06/01 00:18:16;;;;;;;2.50;0.93;;;19.20;60.10;;;;;;4467531;32;20133;-60
2022/06/01 00:20:44;;;;;;;3.30;1.10;;;19.20;60.10;;;;;;4477024;31;20243;-60
2022/06/01 00:23:09;;;;;;;3.47;0.82;;;19.20;60.10;;;;;;4477807;32;20117;-61
2022/06/01 00:25:35;;;;;;;2.13;0.85;;;19.20;60.10;;;;;;4465517;32;20514;-60
2022/06/01 00:28:02;;;;;;;3.75;1.10;;;19.20;60.10;;;;;;4467391;32;20277;-60
2022/06/01 00:30:29;;;;;;;4.18;1.10;;;19.10;60.00;;;;;;4466899;32;20152;-60
2022/06/01 00:32:55;;;;;;;2.80;1.00;;;19.10;60.00;;;;;;4467502;32;20148;-61
2022/06/01 00:35:22;;;;;;;2.58;0.88;;;19.10;60.00;;;;;;4467261;32;20183;-61
2022/06/01 00:37:49;;;;;;;2.92;0.88;;;19.10;60.10;;;;;;4476836;32;20129;-60
2022/06/01 00:40:18;;;;;;;2.35;0.80;;;19.10;60.10;;;;;;4493688;31;20218;-60
2022/06/01 00:42:46;;;;;;;2.58;0.93;;;19.10;60.00;;;;;;4481182;31;20143;-60
2022/06/01 00:45:15;;;;;;;3.78;1.10;;;19.10;60.10;;;;;;4481111;32;20116;-60
2022/06/01 00:47:42;;;;;;;2.35;0.90;;;19.10;60.00;;;;;;4481279;31;20211;-60
2022/06/01 00:50:17;;;;;;;1.85;0.68;;;19.10;60.00;;;;;;4480567;31;20601;-60
2022/06/01 00:52:47;;;;;;;1.85;0.80;;;19.10;60.10;;;;;;4481789;31;20139;-60
2022/06/01 00:55:24;;;;;;;2.78;1.00;;;19.10;60.00;;;;;;4480396;32;20218;-60
2022/06/01 00:57:54;;;;;;;1.92;0.90;;;19.10;60.10;;;;;;4481210;32;20139;-60
2022/06/01 01:00:25;;;;;;;2.50;1.02;;;19.10;60.10;;;;;;4480966;32;20136;-60
2022/06/01 01:02:55;;;;;;;3.05;0.85;;;19.10;60.00;;;;;;4480447;31;20182;-60
2022/06/01 01:05:22;;;;;;;2.33;0.88;;;19.10;60.00;;;;;;4481525;31;20149;-60
2022/06/01 01:07:52;;;;;;;2.20;0.70;;;19.10;60.00;;;;;;4469395;32;20151;-60
2022/06/01 01:10:17;;;;;;;3.50;0.80;;;19.10;60.10;;;;;;4481400;32;20117;-60
2022/06/01 01:12:57;;;;;;;3.80;1.00;;;19.10;60.10;;;;;;4480543;32;20206;-60
2022/06/01 01:15:30;;;;;;;2.40;0.73;;;19.10;60.90;;;;;;4480811;32;20177;-60
2022/06/01 01:17:56;;;;;;;;;;;19.00;60.00;;;;;;4482134;32;20124;-60
2022/06/01 01:20:24;;;;;;;1.83;0.50;;;19.00;60.00;;;;;;4480218;32;20047;-60
2022/06/01 01:23:16;;;;;;;2.70;0.88;;;19.00;60.00;;;;;;4481383;31;20125;-60
2022/06/01 01:25:42;;;;;;;2.33;0.90;;;19.00;60.00;;;;;;4480701;31;20113;-60
2022/06/01 01:28:09;;;;;;;2.20;0.82;;;19.00;60.00;;;;;;4480413;32;20132;-60
2022/06/01 01:30:38;;;;;;;2.13;0.77;;;19.00;60.00;;;;;;4481090;32;20574;-60
2022/06/01 01:33:14;;;;;;;1.02;0.55;;;19.00;60.90;;;;;;4479806;32;20140;-60
2022/06/01 01:35:41;;;;;;;2.83;1.02;;;19.00;60.00;;;;;;4481500;32;20559;-60
2022/06/01 01:38:15;;;;;;;1.30;0.60;;;19.00;60.00;;;;;;4480175;32;20129;-60
2022/06/01 01:40:42;;;;;;;3.42;0.73;;;19.00;60.90;;;;;;4480680;32;20131;-60
2022/06/01 01:43:08;;;;;;;1.40;0.70;;;19.00;60.00;;;;;;4466001;32;20129;-60
2022/06/01 01:45:36;;;;;;;3.45;0.80;;;19.00;60.00;;;;;;4480201;31;20444;-61
2022/06/01 01:48:03;;;;;;;2.38;0.90;;;19.00;60.00;;;;;;4480783;32;20116;-60
2022/06/01 01:50:29;;;;;;;2.95;0.80;;;19.00;60.00;;;;;;4479905;32;20144;-60
2022/06/01 01:52:55;;;;;;;1.15;0.60;;;18.90;60.00;;;;;;4481108;32;20113;-60
2022/06/01 01:55:41;;;;;;;1.67;0.77;;;18.90;59.90;;;;;;4479990;32;20250;-60
2022/06/01 01:58:50;;;;;;;2.88;0.63;;;18.90;60.00;;;;;;4480348;32;20142;-60
2022/06/01 02:01:27;;;;;;;2.80;0.75;;;19.00;60.00;;;;;;4464087;32;20246;-60
2022/06/01 02:04:02;;;;;;;1.88;0.60;;;18.90;59.90;;;;;;4478750;32;20147;-60
2022/06/01 02:06:46;;;;;;;3.25;0.73;;;18.90;60.00;;;;;;4473101;32;20129;-60
2022/06/01 02:09:14;;;;;;;1.55;0.60;;;18.90;60.00;;;;;;4479277;32;20121;-60
2022/06/01 02:14:40;;;;;;;2.08;0.60;;;18.90;60.00;;;;;;4480675;32;20144;-60
2022/06/01 02:17:09;;;;;;;2.08;0.60;;;18.90;60.00;;;;;;4480368;32;20549;-60
2022/06/01 02:19:38;;;;;;;2.03;0.70;;;18.90;60.00;;;;;;4477912;32;20383;-60
2022/06/01 02:22:05;;;;;;;1.05;0.52;;;18.90;60.00;;;;;;4466070;32;20117;-60
2022/06/01 02:24:31;;;;;;;1.00;0.60;;;18.90;60.00;;;;;;4478881;32;20696;-59
2022/06/01 02:26:59;;;;;;;2.17;0.50;;;18.90;60.00;;;;;;4476151;32;20215;-60
2022/06/01 02:29:34;;;;;;;1.95;1.00;;;18.90;60.00;;;;;;4469485;32;20479;-60
2022/06/01 02:32:03;;;;;;;1.02;0.47;;;18.90;59.90;;;;;;4469581;32;20137;-60
2022/06/01 02:34:30;;;;;;;3.10;0.60;;;18.80;59.90;;;;;;4480439;32;20465;-60
2022/06/01 02:36:58;;;;;;;1.92;0.60;;;18.90;60.00;;;;;;4475838;32;20168;-60
2022/06/01 02:39:27;;;;;;;0.70;0.43;;;18.90;60.00;;;;;;4473708;32;20151;-60
2022/06/01 02:42:26;;;;;;;1.90;0.60;;;18.90;60.00;;;;;;4479363;32;20214;-60
2022/06/01 02:45:05;;;;;;;1.35;0.52;;;18.80;59.90;;;;;;4480255;32;20128;-60
2022/06/01 02:47:33;;;;;;;1.27;0.40;;;18.80;59.80;;;;;;4476414;32;20200;-60
2022/06/01 02:50:00;;;;;;;3.63;0.90;;;18.80;59.90;;;;;;4487069;32;20222;-60
2022/06/01 02:52:27;;;;;;;1.55;0.77;;;18.80;59.90;;;;;;4480847;32;20147;-60
2022/06/01 02:54:54;;;;;;;1.92;0.70;;;18.80;59.90;;;;;;4471253;32;20133;-60
2022/06/01 02:57:20;;;;;;;2.17;0.90;;;18.80;59.90;;;;;;4481869;32;20121;-60
2022/06/01 02:59:46;;;;;;;1.33;0.60;;;18.80;59.90;;;;;;4465893;32;20145;-60
2022/06/01 03:02:12;;;;;;;1.88;0.63;;;18.80;59.90;;;;;;4479640;32;20128;-60
2022/06/01 03:04:40;;;;;;;0.98;0.63;;;18.80;59.90;;;;;;4481979;32;20136;-60
2022/06/01 03:07:07;;;;;;;1.15;0.60;;;18.80;59.90;;;;;;4482157;31;20135;-60
2022/06/01 03:09:33;;;;;;;1.50;0.43;;;18.80;59.90;;;;;;4482358;32;20203;-60
2022/06/01 03:11:59;;;;;;;2.30;0.68;;;18.80;59.90;;;;;;4482042;32;20199;-60
2022/06/01 03:14:27;;;;;;;2.88;0.77;;;18.80;59.90;;;;;;4483039;31;20263;-60
2022/06/01 03:16:53;;;;;;;0.85;0.45;;;18.80;59.90;;;;;;4482452;31;20289;-60
2022/06/01 03:19:19;;;;;;;1.27;0.60;;;18.80;59.90;;;;;;4482322;32;20144;-60
2022/06/01 03:21:45;;;;;;;0.95;0.60;;;18.80;59.90;;;;;;4481674;32;20093;-60
2022/06/01 03:24:10;;;;;;;0.73;0.50;;;18.80;59.90;;;;;;4481881;32;20183;-60
2022/06/01 03:26:36;;;;;;;1.40;0.55;;;18.70;59.80;;;;;;4482967;32;20247;-60
2022/06/01 03:29:03;;;;;;;1.83;0.55;;;18.80;59.90;;;;;;4472099;32;20117;-60
2022/06/01 03:31:30;;;;;;;1.40;0.60;;;18.70;59.90;;;;;;4481531;32;20283;-60
2022/06/01 03:33:57;;;;;;;0.93;0.57;;;18.70;59.90;;;;;;4482087;32;20287;-60
2022/06/01 03:36:23;;;;;;;0.65;0.50;;;18.70;59.90;;;;;;4482273;32;20133;-60
2022/06/01 03:38:49;;;;;;;1.40;0.50;;;18.70;59.90;;;;;;4482483;32;20175;-60
2022/06/01 03:41:15;;;;;;;1.17;0.50;;;18.70;59.90;;;;;;4481797;31;20125;-60
2022/06/01 03:46:26;;;;;;;1.70;0.50;;;18.70;59.90;;;;;;4481636;32;20129;-60
2022/06/01 03:48:52;;;;;;;1.33;0.45;;;18.70;59.90;;;;;;4482300;31;20128;-60
2022/06/01 03:51:18;;;;;;;0.82;0.40;;;18.70;59.90;;;;;;4481011;32;20606;-60
2022/06/01 03:53:44;;;;;;;1.77;0.50;;;18.70;59.90;;;;;;4481762;32;20132;-60
2022/06/01 03:56:10;;;;;;;1.17;0.70;;;18.70;59.90;;;;;;4482313;32;20125;-60
2022/06/01 03:58:36;;;;;;;0.60;0.40;;;18.70;59.90;;;;;;4481445;32;20109;-60
2022/06/01 04:01:05;;;;;;;0.68;0.50;;;18.70;59.90;;;;;;4482723;31;20696;-60
2022/06/01 04:03:31;;;;;;;0.50;0.30;;;18.70;59.90;;;;;;4479998;32;20132;-60
2022/06/01 04:05:57;;;;;;;0.63;0.43;;;18.70;59.90;;;;;;4482090;32;20140;-60
2022/06/01 04:08:23;;;;;;;1.20;0.40;;;18.70;60.00;;;;;;4481597;32;20702;-60
2022/06/01 04:10:55;;;;;;;0.55;0.40;;;18.70;60.00;;;;;;4481667;32;20198;-60
2022/06/01 04:13:24;;;;;;;1.33;0.45;;;18.70;60.00;;;;;;4482107;32;20137;-60
2022/06/01 04:15:50;;;;;;;1.63;0.43;;;18.70;60.00;;;;;;4481028;31;20235;-60
2022/06/01 04:18:16;;;;;;;1.88;0.60;;;18.70;59.90;;;;;;4482411;32;20115;-60
2022/06/01 04:20:43;;;;;;;0.68;0.40;;;18.70;60.00;;;;;;4480055;32;20129;-60
2022/06/01 04:23:09;;;;;;;1.60;0.55;;;18.70;60.00;;;;;;4481941;31;20129;-60
2022/06/01 04:25:34;;;;;;;0.93;0.40;;;18.70;60.00;;;;;;4481461;32;20619;-60
2022/06/01 04:28:03;;;;;;;0.60;0.50;;;18.70;59.90;;;;;;4478166;32;20122;-60
2022/06/01 04:30:29;;;;;;;1.77;0.68;;;18.70;60.00;;;;;;4474222;32;20263;-60
2022/06/01 04:32:56;;;;;;;2.17;0.43;;;18.70;60.00;;;;;;4479597;32;20221;-60
2022/06/01 04:35:23;;;;;;;1.42;0.70;;;18.70;60.00;;;;;;4482188;32;20191;-60
2022/06/01 04:37:49;;;;;;;1.80;0.40;;;18.70;60.00;;;;;;4480797;31;20189;-60
2022/06/01 04:40:16;;;;;;;2.08;0.57;;;18.70;60.00;;;;;;4481646;32;20451;-60
2022/06/01 04:42:42;;;;;;;1.42;0.65;;;18.60;60.00;;;;;;4480128;32;20140;-60
2022/06/01 04:45:12;;;;;;;1.17;0.50;;;18.60;59.90;;;;;;4480806;31;20154;-60
2022/06/01 04:47:39;;;;;;;1.08;0.43;;;18.60;59.90;;;;;;4479846;31;20160;-60
2022/06/01 04:50:06;;;;;;;1.58;0.65;;;18.60;60.00;;;;;;4480203;31;20180;-60
2022/06/01 04:52:32;;;;;;;0.93;0.50;;;18.70;60.00;;;;;;4481378;31;20197;-60
2022/06/01 04:54:58;;;;;;;1.90;0.60;;;18.60;60.00;;;;;;4479946;31;20703;-60
2022/06/01 04:57:24;;;;;;;1.20;0.45;;;18.60;60.00;;;;;;4480992;32;20124;-60
2022/06/01 04:59:50;;;;;;;1.20;0.40;;;18.60;60.00;;;;;;4480465;31;20128;-60
2022/06/01 05:02:16;;;;;;;1.80;0.50;;;18.60;60.00;;;;;;4480240;31;20143;-60
2022/06/01 05:04:42;;;;;;;1.38;0.40;;;18.60;60.00;;;;;;4480950;32;20144;-60
2022/06/01 05:07:08;;;;;;;1.17;0.40;;;18.60;60.00;;;;;;4479195;32;20125;-60
2022/06/01 05:09:34;;;;;;;1.55;0.55;;;18.60;60.00;;;;;;4481613;32;20137;-60
2022/06/01 05:12:00;;;;;;;1.13;0.50;;;18.60;60.00;;;;;;4479837;32;20187;-60
2022/06/01 05:14:25;;;;;;;1.05;0.35;;;18.60;60.00;;;;;;4480762;31;20251;-60
2022/06/01 05:16:56;;;;;;;0.70;0.40;;;18.60;60.00;;;;;;4478675;32;20190;-60
2022/06/01 05:19:22;;;;;;;1.05;0.40;;;18.60;60.00;;;;;;4471532;32;20466;-60
2022/06/01 05:21:47;;;;;;;1.13;0.40;;;18.60;60.00;;;;;;4480851;32;20628;-60
2022/06/01 05:24:13;;;;;;;1.52;0.60;;;18.60;60.00;;;;;;4492099;31;20230;-60
2022/06/01 05:26:39;;;;;;;1.27;0.50;;;18.60;60.00;;;;;;4481428;32;20121;-60
2022/06/01 05:29:05;;;;;;;0.73;0.32;;;18.60;60.00;;;;;;4470322;32;20145;-60
2022/06/01 05:31:30;;;;;;;1.40;0.40;;;18.60;60.00;;;;;;4490422;31;20098;-60
2022/06/01 05:33:56;;;;;;;0.95;0.40;;;18.60;60.00;;;;;;4478682;32;20752;-59
2022/06/01 05:36:22;;;;;;;1.13;0.70;;;18.60;60.00;;;;;;4480131;32;20140;-60
2022/06/01 05:38:48;;;;;;;0.90;0.45;;;18.60;60.00;;;;;;4480668;32;20207;-60
2022/06/01 05:41:15;;;;;;;1.05;0.40;;;18.60;60.00;;;;;;4480074;32;20137;-60
2022/06/01 05:43:41;;;;;;;1.38;0.30;;;18.50;60.00;;;;;;4481302;32;20137;-60
2022/06/01 05:46:07;;;;;;;1.23;0.50;;;18.50;60.00;;;;;;4479761;32;20124;-60
2022/06/01 05:48:33;;;;;;;1.08;0.40;;;18.50;60.00;;;;;;4492755;31;20159;-60
2022/06/01 05:51:00;;;;;;;1.13;0.73;;;18.60;60.00;;;;;;4480120;32;20128;-59
2022/06/01 05:53:26;;;;;;;0.60;0.40;;;18.60;60.00;;;;;;4480448;32;20159;-60
2022/06/01 05:55:52;;;;;;;2.33;0.40;;;18.50;60.00;;;;;;4480379;32;20251;-60
2022/06/01 05:58:21;;;;;;;0.80;0.40;;;18.50;60.00;;;;;;4479951;32;20124;-60
2022/06/01 06:00:48;;;;;;;1.85;0.30;;;18.50;60.00;;;;;;4480988;32;20129;-60
2022/06/01 06:03:16;;;;;;;1.23;0.40;;;18.50;60.00;;;;;;4491399;32;20121;-60
2022/06/01 06:08:27;;;;;;;1.38;0.40;;;18.60;60.10;;;;;;4476036;32;20127;-60
2022/06/01 06:10:53;;;;;;;0.75;0.45;;;18.50;60.00;;;;;;4480355;32;20144;-60
2022/06/01 06:13:19;;;;;;;0.63;0.40;;;18.50;60.00;;;;;;4480510;32;20168;-60
2022/06/01 06:15:45;;;;;;;0.70;0.50;;;18.50;60.10;;;;;;4479594;32;20129;-60
2022/06/01 06:18:12;;;;;;;0.57;0.40;;;18.50;60.00;;;;;;4492965;32;20315;-60
2022/06/01 06:20:42;;;;;;;1.67;0.50;;;18.60;60.00;;;;;;4478419;32;20137;-60
2022/06/01 06:23:10;;;;;;;0.70;0.30;;;18.60;60.00;;;;;;4480599;32;20147;-60
2022/06/01 06:25:35;;;;;;;0.52;0.30;;;18.60;60.10;;;;;;4479940;32;20195;-60
2022/06/01 06:28:01;;;;;;;1.25;0.45;;;18.60;60.00;;;;;;4476942;32;20129;-60
2022/06/01 06:30:27;;;;;;;0.30;0.28;;;18.60;60.00;;;;;;4474907;32;20455;-60
2022/06/01 06:32:55;;;;;;;0.90;0.25;;;18.60;60.00;;;;;;4482282;32;20136;-60
2022/06/01 06:35:21;;;;;;;0.30;0.30;;;18.60;60.00;;;;;;4484094;32;20109;-60
2022/06/01 06:37:47;;;;;;;0.25;0.22;;;18.60;60.00;;;;;;4482542;32;20230;-60
2022/06/01 06:40:13;;;;;;;0.55;0.20;;;18.60;60.00;;;;;;4483615;32;20141;-60
2022/06/01 06:42:39;;;;;;;0.68;0.40;;;18.60;60.00;;;;;;4483074;31;20129;-60
2022/06/01 06:45:06;;;;;;;0.57;0.30;;;18.60;60.00;;;;;;4478920;32;20137;-60
2022/06/01 06:47:33;;;;;;;0.68;0.30;;;18.60;60.00;;;;;;4475726;32;20151;-59
2022/06/01 06:50:00;;;;;;;0.85;0.30;;;18.60;60.00;;;;;;4482376;32;20179;-60
2022/06/01 06:52:26;;;;;;;0.75;0.50;;;18.60;60.10;;;;;;4483834;31;20278;-60
2022/06/01 06:54:52;;;;;;;3.05;0.70;;;18.60;60.10;;;;;;4481067;32;20195;-60
2022/06/01 06:57:18;;;;;;;1.02;0.57;;;18.60;60.20;;;;;;4483445;32;20187;-60
2022/06/01 06:59:44;;;;;;;1.60;1.00;;;18.60;60.10;;;;;;4482657;32;20251;-60
2022/06/01 07:02:10;;;;;;;2.80;1.30;;;18.60;60.10;;;;;;4482727;32;20124;-60
2022/06/01 07:04:36;;;;;;;2.35;1.10;;;18.60;60.10;;;;;;4482869;32;20131;-60
2022/06/01 07:07:03;;;;;;;3.28;1.00;;;18.60;60.10;;;;;;4482059;32;20121;-60
2022/06/01 07:09:29;;;;;;;1.35;1.02;;;18.60;60.30;;;;;;4479865;32;20141;-60
2022/06/01 07:11:54;;;;;;;4.57;1.05;;;18.60;60.40;;;;;;4478153;32;20139;-61
2022/06/01 07:14:20;;;;;;;1.33;1.10;;;18.60;60.40;;;;;;4483171;32;20124;-60
2022/06/01 07:16:46;;;;;;;3.20;1.27;;;18.60;60.50;;;;;;4482361;32;20117;-60
2022/06/01 07:19:12;;;;;;;1.40;1.20;;;18.60;60.50;;;;;;4481470;32;20129;-61
2022/06/01 07:21:41;;;;;;;3.08;1.20;;;18.60;60.40;;;;;;4482787;32;20199;-61
2022/06/01 07:24:08;;;;;;;2.95;1.10;;;18.60;60.40;;;;;;4480932;32;20140;-60
2022/06/01 07:26:41;;;;;;;3.22;1.13;;;18.60;60.40;;;;;;4482988;31;20117;-60
2022/06/01 07:29:07;;;;;;;3.23;1.13;;;18.60;60.50;;;;;;4482962;31;20129;-60
2022/06/01 07:31:33;;;;;;;1.85;1.30;;;18.60;60.40;;;;;;4482348;31;20263;-61
2022/06/01 07:33:59;;;;;;;3.70;1.10;;;18.60;60.50;;;;;;4483541;31;20145;-61
2022/06/01 07:36:27;;;;;;;1.63;1.02;;;18.60;60.50;;;;;;4481768;31;20137;-62
2022/06/01 07:44:27;;;;;;;2.20;1.15;;;18.50;60.40;;;;;;4481709;31;20121;-60
2022/06/01 07:46:53;;;;;;;2.95;1.15;;;18.50;60.40;;;;;;4481292;31;20183;-61
2022/06/01 07:49:21;;;;;;;4.13;1.30;;;18.50;60.40;;;;;;4480664;31;20246;-60
2022/06/01 07:51:49;;;;;;;2.83;1.00;;;18.50;60.50;;;;;;4467479;31;20291;-60
2022/06/01 07:54:16;;;;;;;1.92;1.20;;;18.50;60.60;;;;;;4473648;31;20287;-61
2022/06/01 07:56:41;;;;;;;2.80;1.30;;;18.50;60.60;;;;;;4468559;32;20645;-60
2022/06/01 07:59:08;;;;;;;2.28;1.00;;;18.50;60.60;;;;;;4481114;32;20194;-60
2022/06/01 08:01:35;;;;;;;2.03;1.08;;;18.50;60.50;;;;;;4481816;32;20605;-60
2022/06/01 08:04:03;;;;;;;2.22;1.00;;;18.50;60.50;;;;;;4480971;32;20139;-61
2022/06/01 08:06:34;;;;;;;7.00;1.40;;;18.50;60.60;;;;;;4467568;32;20266;-61
2022/06/01 08:09:00;;;;;;;6.00;1.10;;;18.50;60.60;;;;;;4467643;32;20489;-60
2022/06/01 08:14:13;;;;;;;3.67;1.10;;;18.50;60.60;;;;;;4480788;32;20159;-61
2022/06/01 08:16:41;;;;;;;5.13;1.27;;;18.50;60.70;;;;;;4466360;31;20148;-61
2022/06/01 08:19:08;;;;;;;2.60;1.33;;;18.50;60.70;;;;;;4481021;31;20124;-61
2022/06/01 08:21:36;;;;;;;1.88;1.40;;;18.50;60.80;;;;;;4481091;31;20125;-61
2022/06/01 08:24:02;;;;;;;5.75;1.40;;;18.50;60.90;;;;;;4480480;32;20140;-61
2022/06/01 08:26:29;;;;;;;1.73;1.17;;;18.60;61.00;;;;;;4481603;31;20221;-60
2022/06/01 08:28:55;;;;;;;2.67;1.40;;;18.60;61.10;;;;;;4466152;32;20144;-60
2022/06/01 08:31:26;;;;;;;1.60;1.33;;;18.60;61.20;;;;;;4481876;31;20175;-60
2022/06/01 08:33:54;;;;;;;1.73;1.33;;;18.60;61.20;;;;;;4478520;31;20618;-60
2022/06/01 08:36:20;;;;;;;2.30;1.25;;;18.70;61.20;;;;;;4480503;31;20341;-61
2022/06/01 08:38:46;;;;;;;4.70;1.38;;;18.70;61.30;;;;;;4481069;31;20136;-61
2022/06/01 08:41:13;;;;;;;2.20;1.27;;;18.80;61.30;;;;;;4480451;31;20121;-60
2022/06/01 08:43:50;;;;;;;3.25;1.60;;;18.80;61.30;;;;;;4467863;32;20128;-60
2022/06/01 08:46:17;;;;;;;3.85;1.35;;;18.90;61.40;;;;;;4475914;32;20202;-61
2022/06/01 08:48:50;;;;;;;2.30;1.50;;;18.90;61.40;;;;;;4467117;32;20154;-61
2022/06/01 08:51:19;;;;;;;;;;;18.90;61.40;;;;;;4476436;32;20128;-61
2022/06/01 08:53:45;;;;;;;1.63;1.25;;;19.00;61.60;;;;;;4480424;32;20060;-61
2022/06/01 08:56:15;;;;;;;1.90;1.10;;;19.00;61.40;;;;;;4481394;32;20155;-62
2022/06/01 08:59:01;;;;;;;5.45;1.50;;;19.00;61.50;;;;;;4480072;31;20337;-62
2022/06/01 09:01:37;;;;;;;4.53;1.42;;;19.00;61.80;;;;;;4481456;32;20678;-60
2022/06/01 09:04:02;;;;;;;1.38;1.08;;;19.10;61.80;;;;;;4480870;32;20117;-60
2022/06/01 09:06:40;;;;;;;2.33;1.20;;;19.10;61.90;;;;;;4480714;32;20124;-59
2022/06/01 09:09:19;;;;;;;4.75;1.55;;;19.10;61.90;;;;;;4481574;32;20128;-61
2022/06/01 09:11:46;;;;;;;3.38;1.20;;;19.10;62.00;;;;;;4480272;32;20120;-60
2022/06/01 09:14:34;;;;;;;2.35;1.27;;;19.10;62.00;;;;;;4481367;32;20129;-61
2022/06/01 09:17:02;;;;;;;2.10;1.20;;;19.10;62.00;;;;;;4480673;32;20263;-61
2022/06/01 09:22:37;;;;;;;3.00;1.30;;;19.10;61.90;;;;;;4480238;31;20140;-61
2022/06/01 09:25:03;;;;;;;6.93;1.27;;;19.10;61.80;;;;;;4480049;32;20578;-60
2022/06/01 09:27:53;;;;;;;4.05;1.13;;;19.10;61.80;;;;;;4480378;31;20132;-61
2022/06/01 09:30:55;;;;;;;1.27;1.10;;;19.10;61.80;;;;;;4478897;32;20148;-60
2022/06/01 09:33:24;;;;;;;4.45;1.10;;;19.20;61.70;;;;;;4428373;32;20684;-61
2022/06/01 09:36:14;;;;;;;1.13;1.00;;;19.20;61.60;;;;;;4480805;32;20255;-60
2022/06/01 09:38:55;;;;;;;2.45;1.00;;;19.20;61.60;;;;;;4480858;32;20145;-61
2022/06/01 09:41:36;;;;;;;1.48;1.02;;;19.20;61.70;;;;;;4454791;32;20250;-62
2022/06/01 09:44:10;;;;;;;2.00;1.00;;;19.20;61.60;;;;;;4481338;32;20194;-60
2022/06/01 09:46:48;;;;;;;1.52;1.00;;;19.30;61.80;;;;;;4480391;32;20125;-61
2022/06/01 09:49:24;;;;;;;3.58;1.23;;;19.20;61.80;;;;;;4470023;32;20580;-61
2022/06/01 09:52:12;;;;;;;3.05;1.15;;;19.20;61.90;;;;;;4480214;32;20263;-60
2022/06/01 09:54:44;;;;;;;1.77;1.05;;;19.20;61.90;;;;;;4478924;32;20120;-60
2022/06/01 09:57:33;;;;;;;3.40;1.10;;;19.20;61.90;;;;;;4480593;32;20140;-60
2022/06/01 10:08:42;;;;;;;1.67;0.90;;;19.20;62.00;;;;;;4456652;32;20125;-60
2022/06/01 10:11:34;;;;;;;2.95;1.25;;;19.20;61.90;;;;;;4483039;32;20135;-60
2022/06/01 10:14:26;;;;;;;5.15;0.93;;;19.20;61.90;;;;;;4482905;31;20149;-60
2022/06/01 10:17:07;;;;;;;4.22;0.95;;;19.30;62.10;;;;;;4479212;31;20137;-60
2022/06/01 10:19:34;;;;;;;4.40;1.05;;;19.30;61.90;;;;;;4482779;31;20171;-60
2022/06/01 10:22:10;;;;;;;2.90;1.00;;;19.30;62.00;;;;;;4485421;31;20348;-60
2022/06/01 10:24:40;;;;;;;1.27;0.98;;;19.40;62.30;;;;;;4482233;31;20302;-60
2022/06/01 10:27:07;;;;;;;3.53;0.85;;;19.40;62.10;;;;;;4483395;31;20141;-61
2022/06/01 10:30:17;;;;;;;1.45;0.70;;;19.40;62.10;;;;;;4480415;31;20141;-60
2022/06/01 10:32:58;;;;;;;1.58;0.70;;;19.40;62.10;;;;;;4449551;32;20124;-60
2022/06/01 10:35:50;;;;;;;1.85;0.68;;;19.40;62.00;;;;;;4483069;31;20147;-60
2022/06/01 10:38:22;;;;;;;2.50;0.80;;;19.40;61.90;;;;;;4483062;32;20669;-60
2022/06/01 10:41:02;;;;;;;1.00;0.70;;;19.50;61.70;;;;;;4483114;32;20262;-60
2022/06/01 10:43:54;;;;;;;2.90;0.93;;;19.50;62.10;;;;;;4483392;31;20133;-60
2022/06/01 10:46:23;;;;;;;1.85;0.85;;;19.60;61.60;;;;;;4482325;31;20133;-60
2022/06/01 10:49:04;;;;;;;2.17;0.68;;;19.60;61.50;;;;;;4482875;31;20144;-60
2022/06/01 10:51:33;;;;;;;3.83;0.50;;;19.60;61.30;;;;;;4482896;31;20124;-60
2022/06/01 10:54:20;;;;;;;0.57;0.55;;;19.70;61.20;;;;;;4484417;31;20150;-60
2022/06/01 10:56:46;;;;;;;0.82;0.65;;;19.60;61.00;;;;;;4482893;31;20251;-60
2022/06/01 10:59:16;;;;;;;1.58;0.50;;;19.70;61.00;;;;;;4481383;31;20180;-60
2022/06/01 11:02:26;;;;;;;0.60;0.50;;;19.70;60.80;;;;;;4482311;31;20269;-60
2022/06/01 11:05:14;;;;;;;1.20;0.60;;;19.70;60.70;;;;;;4437778;31;20140;-60
2022/06/01 11:08:01;;;;;;;0.88;0.50;;;19.70;60.60;;;;;;4481976;31;20133;-60
2022/06/01 11:10:31;;;;;;;1.42;0.60;;;19.80;60.50;;;;;;4482674;32;20129;-60
2022/06/01 11:13:12;;;;;;;0.80;0.60;;;19.80;60.40;;;;;;4482800;32;20188;-60
2022/06/01 11:16:06;;;;;;;2.55;0.63;;;19.80;60.50;;;;;;4481269;32;20199;-61
2022/06/01 11:18:55;;;;;;;7.57;0.80;;;19.80;60.50;;;;;;4482182;32;20191;-61
2022/06/01 11:21:29;;;;;;;0.75;0.60;;;19.80;60.50;;;;;;4482237;32;20187;-60
2022/06/01 11:24:18;;;;;;;1.25;0.50;;;19.70;60.50;;;;;;4478972;32;20128;-60
2022/06/01 11:27:21;;;;;;;3.95;0.60;;;19.70;60.40;;;;;;4483125;32;20136;-60
2022/06/01 11:29:47;;;;;;;0.88;0.50;;;19.70;60.50;;;;;;4471267;32;20172;-61
2022/06/01 11:32:19;;;;;;;2.88;0.70;;;19.70;60.70;;;;;;4482465;32;20259;-61
2022/06/01 11:34:49;;;;;;;2.08;0.70;;;19.70;60.70;;;;;;4482590;32;20125;-60
2022/06/01 11:37:36;;;;;;;2.20;0.50;;;19.70;60.70;;;;;;4481720;32;20137;-61
2022/06/01 11:40:32;;;;;;;1.48;0.45;;;19.60;60.80;;;;;;4482580;32;20136;-61
2022/06/01 11:43:22;;;;;;;2.08;0.73;;;19.60;60.80;;;;;;4482465;32;20278;-61
2022/06/01 11:45:53;;;;;;;1.60;0.52;;;19.60;60.90;;;;;;4467903;32;20562;-61
2022/06/01 11:48:28;;;;;;;1.65;0.60;;;19.60;60.90;;;;;;4482488;32;20160;-60
2022/06/01 11:51:44;;;;;;;2.10;0.80;;;19.60;60.80;;;;;;4482060;32;20154;-60
2022/06/01 11:54:17;;;;;;;1.55;0.38;;;19.60;61.00;;;;;;4467624;32;20124;-61
2022/06/01 11:56:47;;;;;;;1.10;0.63;;;19.60;61.00;;;;;;4482840;32;20137;-60
2022/06/01 11:59:28;;;;;;;1.27;0.65;;;19.60;61.00;;;;;;4481686;32;20133;-61
2022/06/01 12:02:01;;;;;;;0.60;0.60;;;19.60;61.00;;;;;;4481937;32;20187;-61
2022/06/01 12:04:35;;;;;;;1.08;0.70;;;19.60;61.00;;;;;;4482004;32;20147;-61
2022/06/01 12:07:13;;;;;;;0.40;0.40;;;19.60;61.20;;;;;;4481288;32;20230;-60
2022/06/01 12:09:48;;;;;;;0.52;0.50;;;19.50;61.20;;;;;;4482608;32;20172;-61
2022/06/01 12:12:33;;;;;;;1.88;0.60;;;19.50;61.10;;;;;;4481519;32;20116;-60
2022/06/01 12:15:12;;;;;;;0.93;0.50;;;19.50;61.20;;;;;;4482128;32;20153;-61
2022/06/01 12:17:38;;;;;;;0.75;0.55;;;19.60;61.20;;;;;;4471441;32;20133;-60
2022/06/01 12:20:39;;;;;;;0.88;0.60;;;19.60;61.20;;;;;;4481223;32;20129;-61
2022/06/01 12:29:33;;;;;;;0.70;0.50;;;19.60;61.10;;;;;;4470250;32;20118;-61
2022/06/01 12:31:59;;;;;;;;;;;19.60;61.20;;;;;;4473463;32;20605;-61
2022/06/01 12:34:32;;;;;;;0.40;0.40;;;19.60;61.20;;;;;;4481465;32;20471;-60
2022/06/01 12:37:06;;;;;;;2.00;0.60;;;19.60;61.20;;;;;;4481160;32;20152;-61
2022/06/01 12:39:38;;;;;;;1.55;0.60;;;19.60;61.30;;;;;;4482076;32;20141;-61
2022/06/01 12:42:28;;;;;;;0.90;0.35;;;19.60;61.30;;;;;;4481073;32;20184;-60
2022/06/01 12:44:57;;;;;;;0.93;0.40;;;19.60;61.30;;;;;;4481355;32;20242;-61
2022/06/01 12:47:31;;;;;;;0.45;0.40;;;19.60;61.20;;;;;;4481461;32;20280;-60
2022/06/01 12:50:08;;;;;;;2.88;0.50;;;19.60;61.30;;;;;;4480772;32;20648;-60
2022/06/01 12:52:34;;;;;;;2.00;0.50;;;19.70;61.30;;;;;;4482012;32;20153;-61
2022/06/01 12:55:07;;;;;;;2.10;0.40;;;19.70;61.30;;;;;;4480920;32;20198;-60
2022/06/01 12:57:41;;;;;;;0.88;0.52;;;19.70;61.30;;;;;;4481265;32;20140;-60
2022/06/01 13:00:23;;;;;;;0.88;0.30;;;19.70;61.30;;;;;;4481258;32;20121;-60
2022/06/01 13:02:49;;;;;;;0.68;0.30;;;19.70;61.30;;;;;;4480829;32;20222;-60
2022/06/01 13:05:43;;;;;;;1.15;0.50;;;19.70;61.30;;;;;;4481473;32;20556;-61
2022/06/01 13:08:16;;;;;;;2.28;0.50;;;19.70;61.40;;;;;;4477730;32;20148;-61
2022/06/01 13:10:43;;;;;;;2.13;0.40;;;19.70;61.20;;;;;;4480749;32;20128;-61
2022/06/01 13:13:13;;;;;;;0.82;0.50;;;19.70;60.90;;;;;;4481411;32;20179;-61
2022/06/01 13:15:43;;;;;;;3.67;0.60;;;19.80;60.60;;;;;;4480230;32;20128;-61
2022/06/01 13:18:18;;;;;;;1.95;0.50;;;19.80;60.30;;;;;;4481720;32;20121;-60
2022/06/01 13:20:54;;;;;;;4.22;0.50;;;19.80;60.00;;;;;;4480205;32;20166;-60
2022/06/01 13:23:31;;;;;;;1.30;0.40;;;19.80;59.70;;;;;;4480606;32;20133;-61
2022/06/01 13:26:02;;;;;;;0.68;0.43;;;19.90;59.70;;;;;;4480528;32;20149;-61
2022/06/01 13:28:28;;;;;;;0.55;0.30;;;19.90;59.60;;;;;;4466916;31;20120;-62
2022/06/01 13:30:56;;;;;;;1.48;0.50;;;19.90;59.50;;;;;;4480459;31;20230;-61
2022/06/01 13:33:38;;;;;;;2.75;0.70;;;19.90;59.40;;;;;;4479092;31;20219;-61
2022/06/01 13:36:09;;;;;;;1.38;0.47;;;19.90;59.20;;;;;;4480211;31;20141;-61
2022/06/01 13:38:42;;;;;;;3.25;0.70;;;19.90;59.20;;;;;;4482022;31;20153;-61
2022/06/01 13:41:22;;;;;;;1.30;0.45;;;19.90;59.00;;;;;;4479381;31;20143;-61
2022/06/01 13:43:50;;;;;;;2.00;0.60;;;19.90;58.90;;;;;;4480446;31;20148;-61